sensor_id;sensor_type;location;lat;lon;timestamp;pressure;altitude;pressure_sealevel;temperature;humidity
69911;BME280;63555;49.920;17.868;2023-02-20T00:04:01;99355.94;;;1.11;76.43
69911;BME280;63555;49.920;17.868;2023-02-20T00:09:01;99354.22;;;1.11;76.45
69911;BME280;63555;49.920;17.868;2023-02-20T00:14:02;99356.75;;;1.13;76.49
69911;BME280;63555;49.920;17.868;2023-02-20T00:19:02;99350.84;;;1.08;75.82
69911;BME280;63555;49.920;17.868;2023-02-20T00:24:03;99360.59;;;1.00;76.12
69911;BME280;63555;49.920;17.868;2023-02-20T00:29:04;99356.50;;;0.91;76.39
69911;BME280;63555;49.920;17.868;2023-02-20T00:34:04;99352.41;;;0.81;76.29
69911;BME280;63555;49.920;17.868;2023-02-20T00:39:04;99352.78;;;0.67;76.54
69911;BME280;63555;49.920;17.868;2023-02-20T00:44:05;99349.81;;;0.48;76.79
69911;BME280;63555;49.920;17.868;2023-02-20T00:49:05;99345.91;;;0.32;77.04
69911;BME280;63555;49.920;17.868;2023-02-20T00:54:05;99338.34;;;0.23;77.52
69911;BME280;63555;49.920;17.868;2023-02-20T00:59:06;99339.19;;;0.23;77.86
69911;BME280;63555;49.920;17.868;2023-02-20T01:04:06;99325.41;;;0.21;77.56
69911;BME280;63555;49.920;17.868;2023-02-20T01:09:07;99330.72;;;0.17;77.85
69911;BME280;63555;49.920;17.868;2023-02-20T01:14:07;99332.47;;;0.16;77.59
69911;BME280;63555;49.920;17.868;2023-02-20T01:19:07;99332.47;;;0.16;77.70
69911;BME280;63555;49.920;17.868;2023-02-20T01:24:08;99338.56;;;0.14;77.93
69911;BME280;63555;49.920;17.868;2023-02-20T01:29:08;99335.97;;;0.14;78.35
69911;BME280;63555;49.920;17.868;2023-02-20T01:34:08;99322.69;;;0.27;78.10
69911;BME280;63555;49.920;17.868;2023-02-20T01:39:09;99325.72;;;0.43;77.42
69911;BME280;63555;49.920;17.868;2023-02-20T01:44:18;99323.72;;;0.54;77.32
69911;BME280;63555;49.920;17.868;2023-02-20T01:49:24;99309.69;;;0.61;77.08
69911;BME280;63555;49.920;17.868;2023-02-20T01:54:27;99303.50;;;0.66;76.72
69911;BME280;63555;49.920;17.868;2023-02-20T01:59:30;99283.56;;;0.68;76.92
69911;BME280;63555;49.920;17.868;2023-02-20T02:04:35;99280.88;;;0.71;76.91
69911;BME280;63555;49.920;17.868;2023-02-20T02:09:55;99267.78;;;0.75;76.48
69911;BME280;63555;49.920;17.868;2023-02-20T02:14:57;99246.06;;;0.78;76.16
69911;BME280;63555;49.920;17.868;2023-02-20T02:20:27;99235.59;;;0.81;76.45
69911;BME280;63555;49.920;17.868;2023-02-20T02:36:52;99210.34;;;0.87;76.41
69911;BME280;63555;49.920;17.868;2023-02-20T02:47:15;99201.41;;;0.98;76.19
69911;BME280;63555;49.920;17.868;2023-02-20T02:52:19;99195.22;;;1.02;75.84
69911;BME280;63555;49.920;17.868;2023-02-20T02:57:37;99182.22;;;1.02;76.08
69911;BME280;63555;49.920;17.868;2023-02-20T03:07:56;99189.25;;;0.98;75.86
69911;BME280;63555;49.920;17.868;2023-02-20T03:13:02;99194.50;;;0.97;76.10
69911;BME280;63555;49.920;17.868;2023-02-20T03:23:24;99169.56;;;0.91;75.81
69911;BME280;63555;49.920;17.868;2023-02-20T03:28:39;99165.38;;;0.87;76.10
69911;BME280;63555;49.920;17.868;2023-02-20T03:33:57;99173.34;;;0.79;76.37
69911;BME280;63555;49.920;17.868;2023-02-20T03:39:22;99156.34;;;0.69;76.30
69911;BME280;63555;49.920;17.868;2023-02-20T03:44:43;99174.91;;;0.55;76.37
69911;BME280;63555;49.920;17.868;2023-02-20T03:49:45;99169.19;;;0.44;76.42
69911;BME280;63555;49.920;17.868;2023-02-20T03:54:47;99174.81;;;0.29;76.65
69911;BME280;63555;49.920;17.868;2023-02-20T04:00:01;99178.59;;;0.17;76.89
69911;BME280;63555;49.920;17.868;2023-02-20T04:05:08;99179.72;;;0.07;76.83
69911;BME280;63555;49.920;17.868;2023-02-20T04:10:16;99178.19;;;-0.02;76.90
69911;BME280;63555;49.920;17.868;2023-02-20T04:15:19;99170.69;;;-0.12;77.08
69911;BME280;63555;49.920;17.868;2023-02-20T04:20:20;99157.09;;;-0.20;77.00
69911;BME280;63555;49.920;17.868;2023-02-20T04:30:23;99169.78;;;-0.44;76.78
69911;BME280;63555;49.920;17.868;2023-02-20T04:35:24;99148.75;;;-0.32;77.28
69911;BME280;63555;49.920;17.868;2023-02-20T04:40:24;99151.63;;;-0.10;77.14
69911;BME280;63555;49.920;17.868;2023-02-20T04:45:25;99150.06;;;0.17;76.70
69911;BME280;63555;49.920;17.868;2023-02-20T04:50:30;99150.03;;;0.48;76.33
69911;BME280;63555;49.920;17.868;2023-02-20T04:55:31;99144.28;;;0.68;75.96
69911;BME280;63555;49.920;17.868;2023-02-20T05:00:31;99138.81;;;0.77;76.14
69911;BME280;63555;49.920;17.868;2023-02-20T05:05:31;99136.91;;;0.82;76.31
69911;BME280;63555;49.920;17.868;2023-02-20T05:10:33;99136.25;;;1.05;76.10
69911;BME280;63555;49.920;17.868;2023-02-20T05:15:34;99139.81;;;1.29;76.08
69911;BME280;63555;49.920;17.868;2023-02-20T05:20:35;99136.50;;;1.50;76.23
69911;BME280;63555;49.920;17.868;2023-02-20T05:25:54;99127.25;;;1.68;76.17
69911;BME280;63555;49.920;17.868;2023-02-20T05:30:54;99117.25;;;1.82;75.87
69911;BME280;63555;49.920;17.868;2023-02-20T05:35:55;99131.63;;;1.92;75.59
69911;BME280;63555;49.920;17.868;2023-02-20T05:40:55;99131.59;;;1.94;75.28
69911;BME280;63555;49.920;17.868;2023-02-20T05:45:55;99110.19;;;1.86;74.69
69911;BME280;63555;49.920;17.868;2023-02-20T05:50:56;99115.66;;;1.78;74.58
69911;BME280;63555;49.920;17.868;2023-02-20T05:55:57;99105.56;;;1.69;75.07
69911;BME280;63555;49.920;17.868;2023-02-20T06:00:57;99116.97;;;1.65;75.39
69911;BME280;63555;49.920;17.868;2023-02-20T06:05:57;99123.75;;;1.69;74.99
69911;BME280;63555;49.920;17.868;2023-02-20T06:10:58;99143.38;;;1.79;75.58
69911;BME280;63555;49.920;17.868;2023-02-20T06:16:00;99160.19;;;1.94;75.05
69911;BME280;63555;49.920;17.868;2023-02-20T06:21:01;99149.47;;;2.03;74.87
69911;BME280;63555;49.920;17.868;2023-02-20T06:26:01;99156.22;;;2.09;74.73
69911;BME280;63555;49.920;17.868;2023-02-20T06:31:01;99140.38;;;2.15;74.80
69911;BME280;63555;49.920;17.868;2023-02-20T06:36:03;99149.66;;;2.22;74.98
69911;BME280;63555;49.920;17.868;2023-02-20T06:41:04;99135.59;;;2.28;75.21
69911;BME280;63555;49.920;17.868;2023-02-20T06:46:04;99143.84;;;2.39;74.45
69911;BME280;63555;49.920;17.868;2023-02-20T06:51:04;99139.00;;;2.53;75.19
69911;BME280;63555;49.920;17.868;2023-02-20T06:56:06;99139.41;;;2.66;74.30
69911;BME280;63555;49.920;17.868;2023-02-20T07:01:07;99141.50;;;2.79;74.28
69911;BME280;63555;49.920;17.868;2023-02-20T07:06:07;99137.50;;;2.93;74.01
69911;BME280;63555;49.920;17.868;2023-02-20T07:11:08;99129.03;;;3.09;74.66
69911;BME280;63555;49.920;17.868;2023-02-20T07:16:09;99141.22;;;3.31;74.12
69911;BME280;63555;49.920;17.868;2023-02-20T07:21:09;99148.00;;;3.35;73.88
69911;BME280;63555;49.920;17.868;2023-02-20T07:26:25;99151.22;;;3.41;74.10
69911;BME280;63555;49.920;17.868;2023-02-20T07:31:27;99142.66;;;3.38;73.73
69911;BME280;63555;49.920;17.868;2023-02-20T07:36:27;99144.16;;;3.43;73.98
69911;BME280;63555;49.920;17.868;2023-02-20T07:41:29;99148.84;;;3.57;73.11
69911;BME280;63555;49.920;17.868;2023-02-20T07:46:31;99142.13;;;3.51;73.46
69911;BME280;63555;49.920;17.868;2023-02-20T07:51:33;99121.94;;;3.57;73.50
69911;BME280;63555;49.920;17.868;2023-02-20T07:56:33;99107.34;;;3.73;73.25
69911;BME280;63555;49.920;17.868;2023-02-20T08:01:33;99107.84;;;4.01;73.44
69911;BME280;63555;49.920;17.868;2023-02-20T08:06:34;99099.91;;;4.43;72.73
69911;BME280;63555;49.920;17.868;2023-02-20T08:11:35;99107.03;;;4.77;72.14
69911;BME280;63555;49.920;17.868;2023-02-20T08:16:36;99089.19;;;5.04;71.45
69911;BME280;63555;49.920;17.868;2023-02-20T08:21:36;99078.94;;;5.19;71.01
69911;BME280;63555;49.920;17.868;2023-02-20T08:26:47;99064.84;;;5.04;70.91
69911;BME280;63555;49.920;17.868;2023-02-20T08:31:47;99030.59;;;4.91;71.40
69911;BME280;63555;49.920;17.868;2023-02-20T08:36:47;99046.19;;;4.75;71.05
69911;BME280;63555;49.920;17.868;2023-02-20T08:41:48;99039.53;;;4.68;71.94
69911;BME280;63555;49.920;17.868;2023-02-20T08:46:49;99030.94;;;4.66;71.87
69911;BME280;63555;49.920;17.868;2023-02-20T08:51:53;99020.81;;;4.77;72.06
69911;BME280;63555;49.920;17.868;2023-02-20T08:56:54;99018.91;;;4.81;71.06
69911;BME280;63555;49.920;17.868;2023-02-20T09:01:54;99016.31;;;4.98;71.54
69911;BME280;63555;49.920;17.868;2023-02-20T09:06:55;99007.50;;;5.18;71.74
69911;BME280;63555;49.920;17.868;2023-02-20T09:11:55;98991.63;;;5.23;71.14
69911;BME280;63555;49.920;17.868;2023-02-20T09:16:56;98990.78;;;5.22;71.17
69911;BME280;63555;49.920;17.868;2023-02-20T09:21:56;98978.75;;;5.35;71.41
69911;BME280;63555;49.920;17.868;2023-02-20T09:26:57;98967.00;;;5.44;71.38
69911;BME280;63555;49.920;17.868;2023-02-20T09:31:57;98946.91;;;5.44;71.41
69911;BME280;63555;49.920;17.868;2023-02-20T09:36:57;98937.50;;;5.58;72.14
69911;BME280;63555;49.920;17.868;2023-02-20T09:42:16;98936.28;;;5.81;71.49
69911;BME280;63555;49.920;17.868;2023-02-20T09:52:33;98928.91;;;6.04;71.36
69911;BME280;63555;49.920;17.868;2023-02-20T09:57:40;98916.91;;;6.00;71.92
69911;BME280;63555;49.920;17.868;2023-02-20T10:02:49;98906.44;;;6.00;72.05
69911;BME280;63555;49.920;17.868;2023-02-20T10:07:52;98904.66;;;6.01;72.19
69911;BME280;63555;49.920;17.868;2023-02-20T10:23:41;98889.66;;;6.66;71.83
69911;BME280;63555;49.920;17.868;2023-02-20T10:28:42;98900.16;;;6.66;71.83
69911;BME280;63555;49.920;17.868;2023-02-20T10:33:50;98905.88;;;6.72;71.68
69911;BME280;63555;49.920;17.868;2023-02-20T10:38:55;98890.63;;;6.95;71.49
69911;BME280;63555;49.920;17.868;2023-02-20T10:44:07;98871.56;;;7.21;71.12
69911;BME280;63555;49.920;17.868;2023-02-20T10:49:15;98893.03;;;7.28;70.75
69911;BME280;63555;49.920;17.868;2023-02-20T10:54:21;98847.97;;;7.21;71.18
69911;BME280;63555;49.920;17.868;2023-02-20T11:04:36;98822.75;;;7.33;70.97
69911;BME280;63555;49.920;17.868;2023-02-20T11:09:40;98814.88;;;7.47;70.14
69911;BME280;63555;49.920;17.868;2023-02-20T11:14:45;98784.75;;;7.81;69.88
69911;BME280;63555;49.920;17.868;2023-02-20T11:19:50;98790.56;;;8.40;68.70
69911;BME280;63555;49.920;17.868;2023-02-20T11:24:52;98792.22;;;8.68;67.46
69911;BME280;63555;49.920;17.868;2023-02-20T11:29:57;98786.69;;;8.58;66.96
69911;BME280;63555;49.920;17.868;2023-02-20T11:40:28;98731.00;;;8.14;66.95
69911;BME280;63555;49.920;17.868;2023-02-20T11:45:30;98756.69;;;7.96;67.68
69911;BME280;63555;49.920;17.868;2023-02-20T11:50:47;98751.19;;;7.86;67.81
69911;BME280;63555;49.920;17.868;2023-02-20T11:55:49;98729.13;;;7.89;68.13
69911;BME280;63555;49.920;17.868;2023-02-20T12:01:06;98719.63;;;8.13;67.43
69911;BME280;63555;49.920;17.868;2023-02-20T12:11:33;98627.53;;;8.67;66.72
69911;BME280;63555;49.920;17.868;2023-02-20T12:48:55;98561.72;;;10.10;63.12
69911;BME280;63555;49.920;17.868;2023-02-20T12:54:42;98561.91;;;10.65;62.30
69911;BME280;63555;49.920;17.868;2023-02-20T13:04:59;98573.91;;;11.23;60.40
69911;BME280;63555;49.920;17.868;2023-02-20T13:15:37;98519.25;;;10.37;62.30
69911;BME280;63555;49.920;17.868;2023-02-20T13:20:44;98520.75;;;10.06;62.50
69911;BME280;63555;49.920;17.868;2023-02-20T13:25:49;98530.44;;;9.83;63.06
69911;BME280;63555;49.920;17.868;2023-02-20T13:31:09;98505.28;;;9.79;63.39
69911;BME280;63555;49.920;17.868;2023-02-20T13:36:37;98488.28;;;9.72;63.11
69911;BME280;63555;49.920;17.868;2023-02-20T13:57:30;98506.53;;;9.16;63.82
69911;BME280;63555;49.920;17.868;2023-02-20T14:02:40;98485.88;;;8.99;64.29
69911;BME280;63555;49.920;17.868;2023-02-20T14:07:44;98431.44;;;8.88;64.33
69911;BME280;63555;49.920;17.868;2023-02-20T14:12:52;98412.44;;;8.85;64.14
69911;BME280;63555;49.920;17.868;2023-02-20T14:17:56;98388.88;;;8.83;63.81
69911;BME280;63555;49.920;17.868;2023-02-20T14:23:09;98362.47;;;8.85;63.91
69911;BME280;63555;49.920;17.868;2023-02-20T14:28:13;98353.16;;;8.92;64.34
69911;BME280;63555;49.920;17.868;2023-02-20T14:33:25;98364.41;;;8.94;63.62
69911;BME280;63555;49.920;17.868;2023-02-20T14:44:13;98326.28;;;9.00;63.91
69911;BME280;63555;49.920;17.868;2023-02-20T14:49:29;98324.97;;;8.94;63.61
69911;BME280;63555;49.920;17.868;2023-02-20T14:54:30;98356.97;;;8.88;63.73
69911;BME280;63555;49.920;17.868;2023-02-20T15:04:32;98356.03;;;8.89;63.88
69911;BME280;63555;49.920;17.868;2023-02-20T15:09:37;98357.09;;;8.86;63.81
69911;BME280;63555;49.920;17.868;2023-02-20T15:14:41;98344.91;;;8.85;63.81
69911;BME280;63555;49.920;17.868;2023-02-20T15:19:42;98362.72;;;8.82;63.64
69911;BME280;63555;49.920;17.868;2023-02-20T15:24:43;98333.06;;;8.80;63.43
69911;BME280;63555;49.920;17.868;2023-02-20T15:29:45;98368.19;;;8.79;63.67
69911;BME280;63555;49.920;17.868;2023-02-20T15:34:51;98376.81;;;8.81;63.47
69911;BME280;63555;49.920;17.868;2023-02-20T15:39:52;98332.56;;;8.75;63.73
69911;BME280;63555;49.920;17.868;2023-02-20T15:44:53;98352.69;;;8.63;63.87
69911;BME280;63555;49.920;17.868;2023-02-20T15:49:53;98358.41;;;8.57;63.81
69911;BME280;63555;49.920;17.868;2023-02-20T15:54:55;98364.22;;;8.49;64.07
69911;BME280;63555;49.920;17.868;2023-02-20T15:59:55;98327.06;;;8.43;64.12
69911;BME280;63555;49.920;17.868;2023-02-20T16:04:56;98334.03;;;8.31;64.32
69911;BME280;63555;49.920;17.868;2023-02-20T16:09:57;98337.81;;;8.27;64.52
69911;BME280;63555;49.920;17.868;2023-02-20T16:14:57;98312.13;;;8.19;64.22
69911;BME280;63555;49.920;17.868;2023-02-20T16:19:58;98328.81;;;8.18;64.29
69911;BME280;63555;49.920;17.868;2023-02-20T16:24:59;98314.13;;;8.16;64.09
69911;BME280;63555;49.920;17.868;2023-02-20T16:29:59;98334.06;;;8.18;64.08
69911;BME280;63555;49.920;17.868;2023-02-20T16:35:00;98325.34;;;8.18;63.88
69911;BME280;63555;49.920;17.868;2023-02-20T16:40:00;98337.66;;;8.17;63.68
69911;BME280;63555;49.920;17.868;2023-02-20T16:45:16;98340.16;;;8.19;63.73
69911;BME280;63555;49.920;17.868;2023-02-20T16:50:19;98352.25;;;8.21;63.38
69911;BME280;63555;49.920;17.868;2023-02-20T16:55:25;98351.63;;;8.18;63.95
69911;BME280;63555;49.920;17.868;2023-02-20T17:00:34;98368.09;;;8.20;63.42
69911;BME280;63555;49.920;17.868;2023-02-20T17:05:37;98392.19;;;8.14;64.01
69911;BME280;63555;49.920;17.868;2023-02-20T17:10:38;98406.78;;;8.18;63.89
69911;BME280;63555;49.920;17.868;2023-02-20T17:15:38;98401.38;;;8.32;63.78
69911;BME280;63555;49.920;17.868;2023-02-20T17:20:38;98394.53;;;8.42;63.26
69911;BME280;63555;49.920;17.868;2023-02-20T17:25:39;98402.13;;;8.58;62.91
69911;BME280;63555;49.920;17.868;2023-02-20T17:30:39;98417.97;;;8.69;62.61
69911;BME280;63555;49.920;17.868;2023-02-20T17:35:39;98428.88;;;8.76;62.92
69911;BME280;63555;49.920;17.868;2023-02-20T17:40:40;98427.72;;;8.80;62.63
69911;BME280;63555;49.920;17.868;2023-02-20T17:45:40;98437.16;;;8.82;63.10
69911;BME280;63555;49.920;17.868;2023-02-20T17:50:41;98449.47;;;8.82;62.96
69911;BME280;63555;49.920;17.868;2023-02-20T17:55:41;98417.09;;;8.81;63.31
69911;BME280;63555;49.920;17.868;2023-02-20T18:00:43;98430.38;;;8.91;62.64
69911;BME280;63555;49.920;17.868;2023-02-20T18:05:44;98424.78;;;8.96;62.59
69911;BME280;63555;49.920;17.868;2023-02-20T18:10:44;98431.72;;;8.97;62.69
69911;BME280;63555;49.920;17.868;2023-02-20T18:15:45;98423.09;;;8.94;62.88
69911;BME280;63555;49.920;17.868;2023-02-20T18:20:45;98422.75;;;8.99;62.51
69911;BME280;63555;49.920;17.868;2023-02-20T18:25:46;98430.66;;;8.99;62.76
69911;BME280;63555;49.920;17.868;2023-02-20T18:30:46;98425.28;;;9.01;62.59
69911;BME280;63555;49.920;17.868;2023-02-20T18:35:47;98421.81;;;9.00;62.87
69911;BME280;63555;49.920;17.868;2023-02-20T18:40:47;98423.00;;;8.96;63.16
69911;BME280;63555;49.920;17.868;2023-02-20T18:45:48;98420.59;;;8.93;63.20
69911;BME280;63555;49.920;17.868;2023-02-20T18:50:49;98413.53;;;8.93;62.71
69911;BME280;63555;49.920;17.868;2023-02-20T18:55:51;98401.72;;;8.99;63.04
69911;BME280;63555;49.920;17.868;2023-02-20T19:00:51;98402.91;;;8.95;63.03
69911;BME280;63555;49.920;17.868;2023-02-20T19:05:51;98378.84;;;8.88;62.82
69911;BME280;63555;49.920;17.868;2023-02-20T19:10:52;98373.69;;;8.76;63.10
69911;BME280;63555;49.920;17.868;2023-02-20T19:15:52;98374.78;;;8.60;63.16
69911;BME280;63555;49.920;17.868;2023-02-20T19:20:52;98373.72;;;8.39;63.59
69911;BME280;63555;49.920;17.868;2023-02-20T19:25:53;98385.00;;;8.28;63.69
69911;BME280;63555;49.920;17.868;2023-02-20T19:30:56;98365.75;;;8.28;64.03
69911;BME280;63555;49.920;17.868;2023-02-20T19:35:56;98369.06;;;8.19;64.16
69911;BME280;63555;49.920;17.868;2023-02-20T19:40:57;98371.72;;;8.06;64.43
69911;BME280;63555;49.920;17.868;2023-02-20T19:45:57;98378.81;;;7.93;64.24
69911;BME280;63555;49.920;17.868;2023-02-20T19:50:58;98381.03;;;7.86;64.90
69911;BME280;63555;49.920;17.868;2023-02-20T19:55:58;98381.34;;;7.82;65.29
69911;BME280;63555;49.920;17.868;2023-02-20T20:00:58;98385.94;;;7.78;64.83
69911;BME280;63555;49.920;17.868;2023-02-20T20:05:59;98388.47;;;7.67;65.25
69911;BME280;63555;49.920;17.868;2023-02-20T20:10:59;98378.19;;;7.64;65.44
69911;BME280;63555;49.920;17.868;2023-02-20T20:16:00;98372.00;;;7.65;65.64
69911;BME280;63555;49.920;17.868;2023-02-20T20:21:00;98376.84;;;7.58;65.64
69911;BME280;63555;49.920;17.868;2023-02-20T20:26:00;98362.69;;;7.48;65.87
69911;BME280;63555;49.920;17.868;2023-02-20T20:31:01;98359.97;;;7.37;66.16
69911;BME280;63555;49.920;17.868;2023-02-20T20:36:01;98354.84;;;7.23;66.95
69911;BME280;63555;49.920;17.868;2023-02-20T20:41:01;98355.25;;;7.17;66.77
69911;BME280;63555;49.920;17.868;2023-02-20T20:46:02;98360.91;;;7.11;67.40
69911;BME280;63555;49.920;17.868;2023-02-20T20:51:03;98344.66;;;7.06;66.73
69911;BME280;63555;49.920;17.868;2023-02-20T20:56:05;98339.72;;;7.01;66.98
69911;BME280;63555;49.920;17.868;2023-02-20T21:01:06;98334.06;;;6.94;67.30
69911;BME280;63555;49.920;17.868;2023-02-20T21:06:06;98333.59;;;6.88;67.43
69911;BME280;63555;49.920;17.868;2023-02-20T21:11:06;98334.97;;;6.81;68.06
69911;BME280;63555;49.920;17.868;2023-02-20T21:16:07;98323.94;;;6.76;67.87
69911;BME280;63555;49.920;17.868;2023-02-20T21:21:07;98315.44;;;6.72;68.17
69911;BME280;63555;49.920;17.868;2023-02-20T21:26:07;98314.19;;;6.65;68.29
69911;BME280;63555;49.920;17.868;2023-02-20T21:31:08;98297.94;;;6.60;68.95
69911;BME280;63555;49.920;17.868;2023-02-20T21:36:08;98301.06;;;6.52;69.09
69911;BME280;63555;49.920;17.868;2023-02-20T21:41:09;98300.22;;;6.52;69.54
69911;BME280;63555;49.920;17.868;2023-02-20T21:46:29;98296.97;;;6.48;68.97
69911;BME280;63555;49.920;17.868;2023-02-20T21:51:30;98300.84;;;6.43;69.52
69911;BME280;63555;49.920;17.868;2023-02-20T21:56:30;98300.94;;;6.41;69.94
69911;BME280;63555;49.920;17.868;2023-02-20T22:01:35;98296.66;;;6.40;69.41
69911;BME280;63555;49.920;17.868;2023-02-20T22:06:36;98301.88;;;6.40;69.53
69911;BME280;63555;49.920;17.868;2023-02-20T22:11:36;98304.69;;;6.37;69.57
69911;BME280;63555;49.920;17.868;2023-02-20T22:16:55;98288.16;;;6.36;69.98
69911;BME280;63555;49.920;17.868;2023-02-20T22:22:14;98285.94;;;6.30;69.94
69911;BME280;63555;49.920;17.868;2023-02-20T22:27:33;98283.72;;;6.24;70.36
69911;BME280;63555;49.920;17.868;2023-02-20T22:32:52;98272.50;;;6.22;70.95
69911;BME280;63555;49.920;17.868;2023-02-20T22:38:11;98268.56;;;6.29;70.77
69911;BME280;63555;49.920;17.868;2023-02-20T22:43:30;98268.66;;;6.28;70.23
69911;BME280;63555;49.920;17.868;2023-02-20T22:48:48;98272.31;;;6.25;70.61
69911;BME280;63555;49.920;17.868;2023-02-20T22:54:07;98279.88;;;6.30;70.86
69911;BME280;63555;49.920;17.868;2023-02-20T22:59:26;98270.03;;;6.46;71.55
69911;BME280;63555;49.920;17.868;2023-02-20T23:04:45;98280.97;;;6.65;70.71
69911;BME280;63555;49.920;17.868;2023-02-20T23:10:05;98270.50;;;6.91;70.56
69911;BME280;63555;49.920;17.868;2023-02-20T23:15:25;98261.06;;;7.14;70.11
69911;BME280;63555;49.920;17.868;2023-02-20T23:20:44;98265.88;;;7.32;70.22
69911;BME280;63555;49.920;17.868;2023-02-20T23:26:04;98264.88;;;7.46;69.90
69911;BME280;63555;49.920;17.868;2023-02-20T23:31:52;98263.06;;;7.59;68.98
69911;BME280;63555;49.920;17.868;2023-02-20T23:37:12;98260.41;;;7.72;69.41
69911;BME280;63555;49.920;17.868;2023-02-20T23:42:31;98263.34;;;7.80;69.16
69911;BME280;63555;49.920;17.868;2023-02-20T23:47:50;98260.16;;;7.88;68.76
69911;BME280;63555;49.920;17.868;2023-02-20T23:53:09;98237.97;;;7.92;68.82
69911;BME280;63555;49.920;17.868;2023-02-20T23:58:30;98232.63;;;7.93;68.96
